sensor_id;sensor_type;location;lat;lon;timestamp;P1;durP1;ratioP1;P2;durP2;ratioP2
27802;SDS011;15182;48.174;11.562;2023-04-03T00:02:24;7.07;;;6.67;;
27802;SDS011;15182;48.174;11.562;2023-04-03T00:04:56;7.50;;;6.90;;
27802;SDS011;15182;48.174;11.562;2023-04-03T00:07:29;7.13;;;6.50;;
27802;SDS011;15182;48.174;11.562;2023-04-03T00:10:00;7.47;;;7.07;;
27802;SDS011;15182;48.174;11.562;2023-04-03T00:12:34;6.20;;;5.90;;
27802;SDS011;15182;48.174;11.562;2023-04-03T00:15:06;7.00;;;6.60;;
27802;SDS011;15182;48.174;11.562;2023-04-03T00:17:38;6.03;;;5.70;;
27802;SDS011;15182;48.174;11.562;2023-04-03T00:20:10;6.30;;;6.07;;
27802;SDS011;15182;48.174;11.562;2023-04-03T00:22:42;7.03;;;6.63;;
27802;SDS011;15182;48.174;11.562;2023-04-03T00:25:13;6.50;;;6.13;;
27802;SDS011;15182;48.174;11.562;2023-04-03T00:27:45;7.43;;;6.83;;
27802;SDS011;15182;48.174;11.562;2023-04-03T00:30:17;6.47;;;6.17;;
27802;SDS011;15182;48.174;11.562;2023-04-03T00:32:50;6.07;;;5.80;;
27802;SDS011;15182;48.174;11.562;2023-04-03T00:35:23;6.43;;;6.03;;
27802;SDS011;15182;48.174;11.562;2023-04-03T00:37:56;6.80;;;6.40;;
27802;SDS011;15182;48.174;11.562;2023-04-03T00:40:33;6.60;;;6.30;;
27802;SDS011;15182;48.174;11.562;2023-04-03T00:43:10;6.83;;;6.33;;
27802;SDS011;15182;48.174;11.562;2023-04-03T00:45:44;7.00;;;6.60;;
27802;SDS011;15182;48.174;11.562;2023-04-03T00:48:20;6.07;;;5.80;;
27802;SDS011;15182;48.174;11.562;2023-04-03T00:50:56;6.97;;;6.67;;
27802;SDS011;15182;48.174;11.562;2023-04-03T00:53:31;6.27;;;6.03;;
27802;SDS011;15182;48.174;11.562;2023-04-03T00:56:08;7.10;;;6.70;;
27802;SDS011;15182;48.174;11.562;2023-04-03T00:58:44;6.53;;;6.13;;
27802;SDS011;15182;48.174;11.562;2023-04-03T01:01:21;6.53;;;6.13;;
27802;SDS011;15182;48.174;11.562;2023-04-03T01:03:58;6.37;;;6.07;;
27802;SDS011;15182;48.174;11.562;2023-04-03T01:06:33;6.00;;;5.73;;
27802;SDS011;15182;48.174;11.562;2023-04-03T01:09:07;5.80;;;5.60;;
27802;SDS011;15182;48.174;11.562;2023-04-03T01:11:40;6.50;;;6.20;;
27802;SDS011;15182;48.174;11.562;2023-04-03T01:14:11;6.57;;;6.27;;
27802;SDS011;15182;48.174;11.562;2023-04-03T01:16:50;6.60;;;6.27;;
27802;SDS011;15182;48.174;11.562;2023-04-03T01:19:21;5.77;;;5.43;;
27802;SDS011;15182;48.174;11.562;2023-04-03T01:22:01;6.07;;;5.87;;
27802;SDS011;15182;48.174;11.562;2023-04-03T01:24:44;6.50;;;6.20;;
27802;SDS011;15182;48.174;11.562;2023-04-03T01:27:17;6.00;;;5.73;;
27802;SDS011;15182;48.174;11.562;2023-04-03T01:29:48;7.27;;;6.30;;
27802;SDS011;15182;48.174;11.562;2023-04-03T01:32:21;6.27;;;5.97;;
27802;SDS011;15182;48.174;11.562;2023-04-03T01:34:52;6.87;;;6.47;;
27802;SDS011;15182;48.174;11.562;2023-04-03T01:37:23;6.20;;;5.43;;
27802;SDS011;15182;48.174;11.562;2023-04-03T01:39:55;6.07;;;5.77;;
27802;SDS011;15182;48.174;11.562;2023-04-03T01:42:26;6.70;;;6.30;;
27802;SDS011;15182;48.174;11.562;2023-04-03T01:44:58;6.40;;;6.10;;
27802;SDS011;15182;48.174;11.562;2023-04-03T01:47:30;5.97;;;5.73;;
27802;SDS011;15182;48.174;11.562;2023-04-03T01:50:02;6.03;;;5.73;;
27802;SDS011;15182;48.174;11.562;2023-04-03T01:52:37;6.00;;;5.80;;
27802;SDS011;15182;48.174;11.562;2023-04-03T01:55:08;5.20;;;4.90;;
27802;SDS011;15182;48.174;11.562;2023-04-03T01:57:42;5.90;;;5.70;;
27802;SDS011;15182;48.174;11.562;2023-04-03T02:00:14;5.93;;;5.53;;
27802;SDS011;15182;48.174;11.562;2023-04-03T02:02:47;6.43;;;6.13;;
27802;SDS011;15182;48.174;11.562;2023-04-03T02:05:19;6.03;;;5.33;;
27802;SDS011;15182;48.174;11.562;2023-04-03T02:07:50;5.40;;;5.20;;
27802;SDS011;15182;48.174;11.562;2023-04-03T02:10:22;5.93;;;5.73;;
27802;SDS011;15182;48.174;11.562;2023-04-03T02:12:53;5.67;;;5.37;;
27802;SDS011;15182;48.174;11.562;2023-04-03T02:15:25;5.07;;;4.93;;
27802;SDS011;15182;48.174;11.562;2023-04-03T02:17:57;5.37;;;5.27;;
27802;SDS011;15182;48.174;11.562;2023-04-03T02:20:28;4.80;;;4.60;;
27802;SDS011;15182;48.174;11.562;2023-04-03T02:23:00;5.27;;;5.07;;
27802;SDS011;15182;48.174;11.562;2023-04-03T02:25:32;4.87;;;4.77;;
27802;SDS011;15182;48.174;11.562;2023-04-03T02:28:03;5.90;;;5.50;;
27802;SDS011;15182;48.174;11.562;2023-04-03T02:30:35;6.00;;;5.60;;
27802;SDS011;15182;48.174;11.562;2023-04-03T02:33:07;5.57;;;5.37;;
27802;SDS011;15182;48.174;11.562;2023-04-03T02:35:41;5.47;;;5.27;;
27802;SDS011;15182;48.174;11.562;2023-04-03T02:38:19;5.53;;;5.33;;
27802;SDS011;15182;48.174;11.562;2023-04-03T02:40:51;5.67;;;5.57;;
27802;SDS011;15182;48.174;11.562;2023-04-03T02:43:22;4.73;;;4.63;;
27802;SDS011;15182;48.174;11.562;2023-04-03T02:45:54;5.80;;;5.60;;
27802;SDS011;15182;48.174;11.562;2023-04-03T02:48:26;5.37;;;5.17;;
27802;SDS011;15182;48.174;11.562;2023-04-03T02:50:58;5.37;;;5.07;;
27802;SDS011;15182;48.174;11.562;2023-04-03T02:53:31;5.33;;;5.10;;
27802;SDS011;15182;48.174;11.562;2023-04-03T02:56:08;5.57;;;5.10;;
27802;SDS011;15182;48.174;11.562;2023-04-03T02:58:42;5.37;;;5.00;;
27802;SDS011;15182;48.174;11.562;2023-04-03T03:01:15;5.60;;;5.40;;
27802;SDS011;15182;48.174;11.562;2023-04-03T03:03:47;5.30;;;5.10;;
27802;SDS011;15182;48.174;11.562;2023-04-03T03:06:19;5.30;;;4.90;;
27802;SDS011;15182;48.174;11.562;2023-04-03T03:08:52;5.37;;;5.07;;
27802;SDS011;15182;48.174;11.562;2023-04-03T03:11:24;4.80;;;4.60;;
27802;SDS011;15182;48.174;11.562;2023-04-03T03:13:55;5.87;;;5.57;;
27802;SDS011;15182;48.174;11.562;2023-04-03T03:16:26;5.77;;;5.57;;
27802;SDS011;15182;48.174;11.562;2023-04-03T03:18:59;5.03;;;4.83;;
27802;SDS011;15182;48.174;11.562;2023-04-03T03:21:30;5.70;;;5.50;;
27802;SDS011;15182;48.174;11.562;2023-04-03T03:24:02;5.37;;;5.17;;
27802;SDS011;15182;48.174;11.562;2023-04-03T03:26:33;5.33;;;5.03;;
27802;SDS011;15182;48.174;11.562;2023-04-03T03:29:04;5.33;;;5.13;;
27802;SDS011;15182;48.174;11.562;2023-04-03T03:31:36;4.87;;;4.73;;
27802;SDS011;15182;48.174;11.562;2023-04-03T03:34:09;5.70;;;5.30;;
27802;SDS011;15182;48.174;11.562;2023-04-03T03:36:40;4.97;;;4.80;;
27802;SDS011;15182;48.174;11.562;2023-04-03T03:39:11;5.33;;;5.13;;
27802;SDS011;15182;48.174;11.562;2023-04-03T03:41:46;4.73;;;4.63;;
27802;SDS011;15182;48.174;11.562;2023-04-03T03:44:19;5.03;;;4.80;;
27802;SDS011;15182;48.174;11.562;2023-04-03T03:46:54;4.80;;;4.70;;
27802;SDS011;15182;48.174;11.562;2023-04-03T03:49:29;5.00;;;4.90;;
27802;SDS011;15182;48.174;11.562;2023-04-03T03:52:01;5.23;;;5.03;;
27802;SDS011;15182;48.174;11.562;2023-04-03T03:54:32;4.93;;;4.83;;
27802;SDS011;15182;48.174;11.562;2023-04-03T03:57:03;5.30;;;5.00;;
27802;SDS011;15182;48.174;11.562;2023-04-03T03:59:35;5.20;;;5.03;;
27802;SDS011;15182;48.174;11.562;2023-04-03T04:02:07;5.13;;;4.83;;
27802;SDS011;15182;48.174;11.562;2023-04-03T04:04:40;4.73;;;4.63;;
27802;SDS011;15182;48.174;11.562;2023-04-03T04:07:12;5.20;;;5.00;;
27802;SDS011;15182;48.174;11.562;2023-04-03T04:09:43;4.93;;;4.83;;
27802;SDS011;15182;48.174;11.562;2023-04-03T04:12:15;4.87;;;4.57;;
27802;SDS011;15182;48.174;11.562;2023-04-03T04:14:46;4.67;;;4.57;;
27802;SDS011;15182;48.174;11.562;2023-04-03T04:17:18;4.70;;;4.60;;
27802;SDS011;15182;48.174;11.562;2023-04-03T04:19:52;5.17;;;4.97;;
27802;SDS011;15182;48.174;11.562;2023-04-03T04:22:23;5.30;;;5.10;;
27802;SDS011;15182;48.174;11.562;2023-04-03T04:24:56;4.70;;;4.60;;
27802;SDS011;15182;48.174;11.562;2023-04-03T04:27:28;4.60;;;4.50;;
27802;SDS011;15182;48.174;11.562;2023-04-03T04:30:01;4.90;;;4.70;;
27802;SDS011;15182;48.174;11.562;2023-04-03T04:32:35;5.17;;;5.00;;
27802;SDS011;15182;48.174;11.562;2023-04-03T04:35:08;4.70;;;4.60;;
27802;SDS011;15182;48.174;11.562;2023-04-03T04:37:42;4.93;;;4.83;;
27802;SDS011;15182;48.174;11.562;2023-04-03T04:40:13;4.90;;;4.70;;
27802;SDS011;15182;48.174;11.562;2023-04-03T04:42:45;5.30;;;5.20;;
27802;SDS011;15182;48.174;11.562;2023-04-03T04:45:17;4.90;;;4.73;;
27802;SDS011;15182;48.174;11.562;2023-04-03T04:47:49;4.83;;;4.50;;
27802;SDS011;15182;48.174;11.562;2023-04-03T04:50:22;5.67;;;5.47;;
27802;SDS011;15182;48.174;11.562;2023-04-03T04:52:56;5.10;;;4.90;;
27802;SDS011;15182;48.174;11.562;2023-04-03T04:55:27;4.83;;;4.53;;
27802;SDS011;15182;48.174;11.562;2023-04-03T04:58:01;4.80;;;4.70;;
27802;SDS011;15182;48.174;11.562;2023-04-03T05:00:32;5.73;;;5.43;;
27802;SDS011;15182;48.174;11.562;2023-04-03T05:03:05;4.83;;;4.73;;
27802;SDS011;15182;48.174;11.562;2023-04-03T05:05:38;5.20;;;5.10;;
27802;SDS011;15182;48.174;11.562;2023-04-03T05:08:09;5.47;;;5.27;;
27802;SDS011;15182;48.174;11.562;2023-04-03T05:10:44;5.50;;;5.20;;
27802;SDS011;15182;48.174;11.562;2023-04-03T05:13:17;5.77;;;5.57;;
27802;SDS011;15182;48.174;11.562;2023-04-03T05:15:48;5.10;;;4.90;;
27802;SDS011;15182;48.174;11.562;2023-04-03T05:18:20;5.63;;;5.43;;
27802;SDS011;15182;48.174;11.562;2023-04-03T05:20:54;5.20;;;5.00;;
27802;SDS011;15182;48.174;11.562;2023-04-03T05:23:26;5.07;;;4.77;;
27802;SDS011;15182;48.174;11.562;2023-04-03T05:26:02;5.03;;;4.80;;
27802;SDS011;15182;48.174;11.562;2023-04-03T05:28:33;5.30;;;5.00;;
27802;SDS011;15182;48.174;11.562;2023-04-03T05:31:08;5.30;;;5.10;;
27802;SDS011;15182;48.174;11.562;2023-04-03T05:33:39;5.17;;;4.93;;
27802;SDS011;15182;48.174;11.562;2023-04-03T05:36:17;5.37;;;5.17;;
27802;SDS011;15182;48.174;11.562;2023-04-03T05:38:53;4.93;;;4.77;;
27802;SDS011;15182;48.174;11.562;2023-04-03T05:41:25;4.80;;;4.60;;
27802;SDS011;15182;48.174;11.562;2023-04-03T05:43:58;5.30;;;5.17;;
27802;SDS011;15182;48.174;11.562;2023-04-03T05:46:30;5.03;;;4.87;;
27802;SDS011;15182;48.174;11.562;2023-04-03T05:49:06;5.93;;;5.63;;
27802;SDS011;15182;48.174;11.562;2023-04-03T05:51:39;5.93;;;5.53;;
27802;SDS011;15182;48.174;11.562;2023-04-03T05:54:22;5.80;;;5.40;;
27802;SDS011;15182;48.174;11.562;2023-04-03T05:57:09;6.30;;;6.00;;
27802;SDS011;15182;48.174;11.562;2023-04-03T05:59:41;5.17;;;4.97;;
27802;SDS011;15182;48.174;11.562;2023-04-03T06:02:15;5.50;;;5.20;;
27802;SDS011;15182;48.174;11.562;2023-04-03T06:04:49;5.37;;;5.17;;
27802;SDS011;15182;48.174;11.562;2023-04-03T06:07:22;5.93;;;5.73;;
27802;SDS011;15182;48.174;11.562;2023-04-03T06:09:56;5.27;;;5.07;;
27802;SDS011;15182;48.174;11.562;2023-04-03T06:12:28;6.10;;;5.13;;
27802;SDS011;15182;48.174;11.562;2023-04-03T06:14:59;7.53;;;5.20;;
27802;SDS011;15182;48.174;11.562;2023-04-03T06:17:32;5.43;;;5.23;;
27802;SDS011;15182;48.174;11.562;2023-04-03T06:20:06;6.13;;;5.90;;
27802;SDS011;15182;48.174;11.562;2023-04-03T06:22:40;5.50;;;5.10;;
27802;SDS011;15182;48.174;11.562;2023-04-03T06:25:13;5.43;;;5.20;;
27802;SDS011;15182;48.174;11.562;2023-04-03T06:27:46;6.17;;;5.73;;
27802;SDS011;15182;48.174;11.562;2023-04-03T06:30:17;6.13;;;5.93;;
27802;SDS011;15182;48.174;11.562;2023-04-03T06:32:48;6.23;;;5.80;;
27802;SDS011;15182;48.174;11.562;2023-04-03T06:35:19;5.83;;;5.53;;
27802;SDS011;15182;48.174;11.562;2023-04-03T06:37:53;5.57;;;5.37;;
27802;SDS011;15182;48.174;11.562;2023-04-03T06:40:24;6.33;;;6.00;;
27802;SDS011;15182;48.174;11.562;2023-04-03T06:42:56;5.57;;;5.40;;
27802;SDS011;15182;48.174;11.562;2023-04-03T06:45:27;5.80;;;5.40;;
27802;SDS011;15182;48.174;11.562;2023-04-03T06:47:59;5.40;;;5.10;;
27802;SDS011;15182;48.174;11.562;2023-04-03T06:50:31;5.77;;;5.50;;
27802;SDS011;15182;48.174;11.562;2023-04-03T06:53:03;5.63;;;5.33;;
27802;SDS011;15182;48.174;11.562;2023-04-03T06:55:35;5.63;;;5.23;;
27802;SDS011;15182;48.174;11.562;2023-04-03T06:58:09;5.70;;;5.40;;
27802;SDS011;15182;48.174;11.562;2023-04-03T07:00:40;5.37;;;5.27;;
27802;SDS011;15182;48.174;11.562;2023-04-03T07:03:14;5.40;;;5.17;;
27802;SDS011;15182;48.174;11.562;2023-04-03T07:05:46;6.70;;;6.10;;
27802;SDS011;15182;48.174;11.562;2023-04-03T07:08:18;5.40;;;5.23;;
27802;SDS011;15182;48.174;11.562;2023-04-03T07:10:51;5.93;;;5.73;;
27802;SDS011;15182;48.174;11.562;2023-04-03T07:13:23;5.87;;;5.50;;
27802;SDS011;15182;48.174;11.562;2023-04-03T07:15:54;5.87;;;5.63;;
27802;SDS011;15182;48.174;11.562;2023-04-03T07:18:26;6.17;;;5.67;;
27802;SDS011;15182;48.174;11.562;2023-04-03T07:20:57;5.70;;;5.40;;
27802;SDS011;15182;48.174;11.562;2023-04-03T07:23:30;5.30;;;5.10;;
27802;SDS011;15182;48.174;11.562;2023-04-03T07:26:01;6.23;;;5.77;;
27802;SDS011;15182;48.174;11.562;2023-04-03T07:28:36;4.97;;;4.87;;
27802;SDS011;15182;48.174;11.562;2023-04-03T07:31:08;7.03;;;5.60;;
27802;SDS011;15182;48.174;11.562;2023-04-03T07:33:41;5.30;;;5.10;;
27802;SDS011;15182;48.174;11.562;2023-04-03T07:36:16;6.00;;;5.70;;
27802;SDS011;15182;48.174;11.562;2023-04-03T07:38:51;5.40;;;5.20;;
27802;SDS011;15182;48.174;11.562;2023-04-03T07:41:24;5.80;;;5.60;;
27802;SDS011;15182;48.174;11.562;2023-04-03T07:43:56;6.10;;;5.80;;
27802;SDS011;15182;48.174;11.562;2023-04-03T07:46:28;5.73;;;5.43;;
27802;SDS011;15182;48.174;11.562;2023-04-03T07:48:59;6.00;;;5.70;;
27802;SDS011;15182;48.174;11.562;2023-04-03T07:51:30;6.03;;;5.90;;
27802;SDS011;15182;48.174;11.562;2023-04-03T07:54:03;6.00;;;5.80;;
27802;SDS011;15182;48.174;11.562;2023-04-03T07:56:34;5.70;;;5.50;;
27802;SDS011;15182;48.174;11.562;2023-04-03T07:59:05;6.27;;;5.97;;
27802;SDS011;15182;48.174;11.562;2023-04-03T08:01:37;5.67;;;5.53;;
27802;SDS011;15182;48.174;11.562;2023-04-03T08:04:08;5.97;;;5.40;;
27802;SDS011;15182;48.174;11.562;2023-04-03T08:06:39;6.43;;;6.10;;
27802;SDS011;15182;48.174;11.562;2023-04-03T08:09:12;6.50;;;5.90;;
27802;SDS011;15182;48.174;11.562;2023-04-03T08:11:43;6.00;;;5.70;;
27802;SDS011;15182;48.174;11.562;2023-04-03T08:14:16;6.10;;;5.63;;
27802;SDS011;15182;48.174;11.562;2023-04-03T08:16:47;6.47;;;6.07;;
27802;SDS011;15182;48.174;11.562;2023-04-03T08:19:20;6.70;;;6.30;;
27802;SDS011;15182;48.174;11.562;2023-04-03T08:21:52;6.60;;;6.10;;
27802;SDS011;15182;48.174;11.562;2023-04-03T08:24:23;6.23;;;5.93;;
27802;SDS011;15182;48.174;11.562;2023-04-03T08:26:55;6.40;;;5.97;;
27802;SDS011;15182;48.174;11.562;2023-04-03T08:29:28;6.57;;;5.97;;
27802;SDS011;15182;48.174;11.562;2023-04-03T08:32:00;7.17;;;6.67;;
27802;SDS011;15182;48.174;11.562;2023-04-03T08:34:31;6.27;;;5.97;;
27802;SDS011;15182;48.174;11.562;2023-04-03T08:37:05;6.93;;;6.30;;
27802;SDS011;15182;48.174;11.562;2023-04-03T08:39:38;6.30;;;6.00;;
27802;SDS011;15182;48.174;11.562;2023-04-03T08:42:12;7.87;;;6.63;;
27802;SDS011;15182;48.174;11.562;2023-04-03T08:44:55;6.93;;;6.33;;
27802;SDS011;15182;48.174;11.562;2023-04-03T08:47:37;7.97;;;5.90;;
27802;SDS011;15182;48.174;11.562;2023-04-03T08:50:14;6.23;;;5.73;;
27802;SDS011;15182;48.174;11.562;2023-04-03T08:52:48;6.53;;;6.03;;
27802;SDS011;15182;48.174;11.562;2023-04-03T08:55:24;6.23;;;5.83;;
27802;SDS011;15182;48.174;11.562;2023-04-03T08:57:59;6.10;;;5.77;;
27802;SDS011;15182;48.174;11.562;2023-04-03T09:00:34;6.13;;;5.63;;
27802;SDS011;15182;48.174;11.562;2023-04-03T09:03:13;5.40;;;5.20;;
27802;SDS011;15182;48.174;11.562;2023-04-03T09:05:48;7.40;;;6.87;;
27802;SDS011;15182;48.174;11.562;2023-04-03T09:08:27;6.13;;;5.93;;
27802;SDS011;15182;48.174;11.562;2023-04-03T09:11:09;6.33;;;5.90;;
27802;SDS011;15182;48.174;11.562;2023-04-03T09:13:49;6.23;;;5.80;;
27802;SDS011;15182;48.174;11.562;2023-04-03T09:19:18;6.00;;;5.70;;
27802;SDS011;15182;48.174;11.562;2023-04-03T09:21:59;6.83;;;6.37;;
27802;SDS011;15182;48.174;11.562;2023-04-03T09:24:48;6.53;;;6.23;;
27802;SDS011;15182;48.174;11.562;2023-04-03T09:27:27;6.63;;;6.20;;
27802;SDS011;15182;48.174;11.562;2023-04-03T09:29:58;5.87;;;5.53;;
27802;SDS011;15182;48.174;11.562;2023-04-03T09:32:33;5.73;;;5.53;;
27802;SDS011;15182;48.174;11.562;2023-04-03T09:35:10;6.17;;;5.90;;
27802;SDS011;15182;48.174;11.562;2023-04-03T09:37:52;6.50;;;6.23;;
27802;SDS011;15182;48.174;11.562;2023-04-03T09:40:31;6.33;;;5.90;;
27802;SDS011;15182;48.174;11.562;2023-04-03T09:43:25;6.33;;;5.73;;
27802;SDS011;15182;48.174;11.562;2023-04-03T09:46:16;5.90;;;5.70;;
27802;SDS011;15182;48.174;11.562;2023-04-03T09:48:55;5.97;;;5.47;;
27802;SDS011;15182;48.174;11.562;2023-04-03T09:51:31;5.90;;;5.47;;
27802;SDS011;15182;48.174;11.562;2023-04-03T09:54:04;6.40;;;6.10;;
27802;SDS011;15182;48.174;11.562;2023-04-03T09:56:57;5.93;;;5.63;;
27802;SDS011;15182;48.174;11.562;2023-04-03T09:59:37;5.63;;;5.33;;
27802;SDS011;15182;48.174;11.562;2023-04-03T10:02:23;5.73;;;5.30;;
27802;SDS011;15182;48.174;11.562;2023-04-03T10:05:04;5.30;;;5.00;;
27802;SDS011;15182;48.174;11.562;2023-04-03T10:07:54;5.77;;;5.27;;
27802;SDS011;15182;48.174;11.562;2023-04-03T10:10:46;5.67;;;5.37;;
27802;SDS011;15182;48.174;11.562;2023-04-03T10:13:35;5.43;;;5.17;;
27802;SDS011;15182;48.174;11.562;2023-04-03T10:16:19;5.87;;;5.67;;
27802;SDS011;15182;48.174;11.562;2023-04-03T10:19:00;6.17;;;5.87;;
27802;SDS011;15182;48.174;11.562;2023-04-03T10:21:57;5.40;;;5.10;;
27802;SDS011;15182;48.174;11.562;2023-04-03T10:24:39;5.60;;;5.40;;
27802;SDS011;15182;48.174;11.562;2023-04-03T10:27:18;6.33;;;5.70;;
27802;SDS011;15182;48.174;11.562;2023-04-03T10:29:59;5.57;;;5.37;;
27802;SDS011;15182;48.174;11.562;2023-04-03T10:32:44;5.97;;;5.47;;
27802;SDS011;15182;48.174;11.562;2023-04-03T10:35:25;5.30;;;5.10;;
27802;SDS011;15182;48.174;11.562;2023-04-03T10:38:14;5.53;;;5.03;;
27802;SDS011;15182;48.174;11.562;2023-04-03T10:40:52;4.87;;;4.77;;
27802;SDS011;15182;48.174;11.562;2023-04-03T10:43:36;5.50;;;5.17;;
27802;SDS011;15182;48.174;11.562;2023-04-03T10:46:15;5.27;;;5.07;;
27802;SDS011;15182;48.174;11.562;2023-04-03T10:48:59;5.10;;;4.80;;
27802;SDS011;15182;48.174;11.562;2023-04-03T10:51:42;5.30;;;5.10;;
27802;SDS011;15182;48.174;11.562;2023-04-03T10:54:19;5.10;;;4.90;;
27802;SDS011;15182;48.174;11.562;2023-04-03T10:56:55;4.37;;;4.27;;
27802;SDS011;15182;48.174;11.562;2023-04-03T10:59:32;5.20;;;4.90;;
27802;SDS011;15182;48.174;11.562;2023-04-03T11:02:06;4.97;;;4.77;;
27802;SDS011;15182;48.174;11.562;2023-04-03T11:04:50;5.13;;;4.90;;
27802;SDS011;15182;48.174;11.562;2023-04-03T11:07:30;5.07;;;4.97;;
27802;SDS011;15182;48.174;11.562;2023-04-03T11:10:10;5.70;;;5.30;;
27802;SDS011;15182;48.174;11.562;2023-04-03T11:12:51;5.27;;;4.90;;
27802;SDS011;15182;48.174;11.562;2023-04-03T11:15:29;5.10;;;4.60;;
27802;SDS011;15182;48.174;11.562;2023-04-03T11:18:02;5.03;;;4.83;;
27802;SDS011;15182;48.174;11.562;2023-04-03T11:20:40;5.37;;;5.23;;
27802;SDS011;15182;48.174;11.562;2023-04-03T11:23:19;5.10;;;4.90;;
27802;SDS011;15182;48.174;11.562;2023-04-03T11:25:56;5.67;;;5.17;;
27802;SDS011;15182;48.174;11.562;2023-04-03T11:28:39;5.33;;;5.13;;
27802;SDS011;15182;48.174;11.562;2023-04-03T11:31:18;5.03;;;4.83;;
27802;SDS011;15182;48.174;11.562;2023-04-03T11:34:19;5.50;;;5.30;;
27802;SDS011;15182;48.174;11.562;2023-04-03T11:37:01;5.17;;;4.77;;
27802;SDS011;15182;48.174;11.562;2023-04-03T11:39:45;4.50;;;4.40;;
27802;SDS011;15182;48.174;11.562;2023-04-03T11:42:24;4.87;;;4.77;;
27802;SDS011;15182;48.174;11.562;2023-04-03T11:47:58;5.83;;;5.23;;
27802;SDS011;15182;48.174;11.562;2023-04-03T11:51:02;4.53;;;4.43;;
27802;SDS011;15182;48.174;11.562;2023-04-03T12:12:44;3.80;;;3.53;;
27802;SDS011;15182;48.174;11.562;2023-04-03T12:24:37;3.83;;;3.73;;
27802;SDS011;15182;48.174;11.562;2023-04-03T12:27:20;4.47;;;4.37;;
27802;SDS011;15182;48.174;11.562;2023-04-03T12:30:01;3.60;;;3.57;;
27802;SDS011;15182;48.174;11.562;2023-04-03T12:32:48;4.13;;;3.97;;
27802;SDS011;15182;48.174;11.562;2023-04-03T12:35:29;3.60;;;3.60;;
27802;SDS011;15182;48.174;11.562;2023-04-03T12:41:11;4.07;;;3.97;;
27802;SDS011;15182;48.174;11.562;2023-04-03T12:43:53;3.47;;;3.27;;
27802;SDS011;15182;48.174;11.562;2023-04-03T12:46:51;5.80;;;3.57;;
27802;SDS011;15182;48.174;11.562;2023-04-03T12:49:30;4.30;;;4.10;;
27802;SDS011;15182;48.174;11.562;2023-04-03T12:52:05;3.90;;;3.80;;
27802;SDS011;15182;48.174;11.562;2023-04-03T12:54:52;3.03;;;2.90;;
27802;SDS011;15182;48.174;11.562;2023-04-03T12:57:23;3.73;;;3.57;;
27802;SDS011;15182;48.174;11.562;2023-04-03T12:59:59;3.90;;;3.80;;
27802;SDS011;15182;48.174;11.562;2023-04-03T13:02:46;3.50;;;3.40;;
27802;SDS011;15182;48.174;11.562;2023-04-03T13:05:18;3.27;;;3.17;;
27802;SDS011;15182;48.174;11.562;2023-04-03T13:07:54;3.93;;;3.83;;
27802;SDS011;15182;48.174;11.562;2023-04-03T13:10:32;4.40;;;3.87;;
27802;SDS011;15182;48.174;11.562;2023-04-03T13:13:16;3.60;;;3.50;;
27802;SDS011;15182;48.174;11.562;2023-04-03T13:15:50;3.70;;;3.60;;
27802;SDS011;15182;48.174;11.562;2023-04-03T13:18:29;4.33;;;3.93;;
27802;SDS011;15182;48.174;11.562;2023-04-03T13:21:05;3.63;;;3.53;;
27802;SDS011;15182;48.174;11.562;2023-04-03T13:23:45;3.80;;;3.50;;
27802;SDS011;15182;48.174;11.562;2023-04-03T13:26:20;3.07;;;3.07;;
27802;SDS011;15182;48.174;11.562;2023-04-03T13:28:59;3.13;;;3.13;;
27802;SDS011;15182;48.174;11.562;2023-04-03T13:31:36;3.50;;;3.50;;
27802;SDS011;15182;48.174;11.562;2023-04-03T13:34:12;3.60;;;3.40;;
27802;SDS011;15182;48.174;11.562;2023-04-03T13:36:56;4.00;;;3.70;;
27802;SDS011;15182;48.174;11.562;2023-04-03T13:39:31;3.23;;;3.13;;
27802;SDS011;15182;48.174;11.562;2023-04-03T13:42:14;5.20;;;4.80;;
27802;SDS011;15182;48.174;11.562;2023-04-03T13:45:06;5.13;;;4.43;;
27802;SDS011;15182;48.174;11.562;2023-04-03T13:47:47;3.87;;;3.67;;
27802;SDS011;15182;48.174;11.562;2023-04-03T13:50:33;3.60;;;3.60;;
27802;SDS011;15182;48.174;11.562;2023-04-03T13:53:17;3.60;;;3.50;;
27802;SDS011;15182;48.174;11.562;2023-04-03T13:55:55;3.37;;;3.27;;
27802;SDS011;15182;48.174;11.562;2023-04-03T13:58:35;3.63;;;3.63;;
27802;SDS011;15182;48.174;11.562;2023-04-03T14:01:20;3.80;;;3.60;;
27802;SDS011;15182;48.174;11.562;2023-04-03T14:03:55;4.33;;;4.13;;
27802;SDS011;15182;48.174;11.562;2023-04-03T14:06:28;3.70;;;3.60;;
27802;SDS011;15182;48.174;11.562;2023-04-03T14:08:59;3.60;;;3.50;;
27802;SDS011;15182;48.174;11.562;2023-04-03T14:11:31;3.83;;;3.70;;
27802;SDS011;15182;48.174;11.562;2023-04-03T14:14:06;3.33;;;3.23;;
27802;SDS011;15182;48.174;11.562;2023-04-03T14:16:43;3.70;;;3.60;;
27802;SDS011;15182;48.174;11.562;2023-04-03T14:19:22;3.57;;;3.47;;
27802;SDS011;15182;48.174;11.562;2023-04-03T14:21:56;3.70;;;3.50;;
27802;SDS011;15182;48.174;11.562;2023-04-03T14:24:33;3.70;;;3.60;;
27802;SDS011;15182;48.174;11.562;2023-04-03T14:27:05;4.17;;;4.07;;
27802;SDS011;15182;48.174;11.562;2023-04-03T14:29:45;3.77;;;3.67;;
27802;SDS011;15182;48.174;11.562;2023-04-03T14:32:19;3.70;;;3.50;;
27802;SDS011;15182;48.174;11.562;2023-04-03T14:34:54;3.53;;;3.53;;
27802;SDS011;15182;48.174;11.562;2023-04-03T14:37:27;3.60;;;3.40;;
27802;SDS011;15182;48.174;11.562;2023-04-03T14:40:01;4.40;;;3.97;;
27802;SDS011;15182;48.174;11.562;2023-04-03T14:42:38;3.83;;;3.83;;
27802;SDS011;15182;48.174;11.562;2023-04-03T14:45:11;4.00;;;3.90;;
27802;SDS011;15182;48.174;11.562;2023-04-03T14:47:44;3.43;;;3.43;;
27802;SDS011;15182;48.174;11.562;2023-04-03T14:50:20;4.87;;;4.40;;
27802;SDS011;15182;48.174;11.562;2023-04-03T14:52:54;3.50;;;3.37;;
27802;SDS011;15182;48.174;11.562;2023-04-03T14:55:27;3.20;;;3.20;;
27802;SDS011;15182;48.174;11.562;2023-04-03T14:57:58;4.10;;;3.97;;
27802;SDS011;15182;48.174;11.562;2023-04-03T15:00:30;3.50;;;3.40;;
27802;SDS011;15182;48.174;11.562;2023-04-03T15:03:01;7.20;;;3.63;;
27802;SDS011;15182;48.174;11.562;2023-04-03T15:05:34;3.73;;;3.63;;
27802;SDS011;15182;48.174;11.562;2023-04-03T15:08:08;3.37;;;3.27;;
27802;SDS011;15182;48.174;11.562;2023-04-03T15:10:49;3.73;;;3.73;;
27802;SDS011;15182;48.174;11.562;2023-04-03T15:13:22;3.77;;;3.57;;
27802;SDS011;15182;48.174;11.562;2023-04-03T15:15:54;4.97;;;4.77;;
27802;SDS011;15182;48.174;11.562;2023-04-03T15:18:26;3.80;;;3.70;;
27802;SDS011;15182;48.174;11.562;2023-04-03T15:21:03;4.23;;;4.03;;
27802;SDS011;15182;48.174;11.562;2023-04-03T15:23:35;3.73;;;3.70;;
27802;SDS011;15182;48.174;11.562;2023-04-03T15:26:06;3.47;;;3.40;;
27802;SDS011;15182;48.174;11.562;2023-04-03T15:28:37;3.43;;;3.43;;
27802;SDS011;15182;48.174;11.562;2023-04-03T15:31:11;3.63;;;3.47;;
27802;SDS011;15182;48.174;11.562;2023-04-03T15:33:42;2.90;;;2.90;;
27802;SDS011;15182;48.174;11.562;2023-04-03T15:36:15;3.40;;;3.30;;
27802;SDS011;15182;48.174;11.562;2023-04-03T15:38:46;3.10;;;3.03;;
27802;SDS011;15182;48.174;11.562;2023-04-03T15:41:18;3.40;;;3.40;;
27802;SDS011;15182;48.174;11.562;2023-04-03T15:43:49;3.80;;;3.70;;
27802;SDS011;15182;48.174;11.562;2023-04-03T15:46:21;3.47;;;3.17;;
27802;SDS011;15182;48.174;11.562;2023-04-03T15:48:52;3.50;;;3.40;;
27802;SDS011;15182;48.174;11.562;2023-04-03T15:51:25;3.70;;;3.70;;
27802;SDS011;15182;48.174;11.562;2023-04-03T15:53:57;3.73;;;3.53;;
27802;SDS011;15182;48.174;11.562;2023-04-03T15:56:28;4.00;;;3.80;;
27802;SDS011;15182;48.174;11.562;2023-04-03T15:58:59;3.77;;;3.57;;